Terminal Aerodrome Forecast
Issued by NWS

Home | Current Version | Previous Version | Text Only | Print | Product List | Glossary On
Versions: 1 2 3 4 5 6 7 8 9 10 11 12 13 14 15 16 17 18 19 20 21 22
428
FTPA31 PHFO 201122
TAFHLI
TAF
PHLI 201122Z 2012/2112 04017KT P6SM SCT027 BKN045
     FM201900 05017G23KT P6SM FEW025 SCT035
     FM210600 05015KT P6SM SCT027 BKN045=

USA.gov is the U.S. government's official web portal to all federal, state and local government web resources and services.